Time;durP1;ratioP1;P1;durP2;ratioP2;P2;SDS_P1;SDS_P2;PMS_P1;PMS_P2;Temp;Humidity;BMP_temperature;BMP_pressure;BME280_temperature;BME280_humidity;BME280_pressure;Samples;Min_cycle;Max_cycle;Signal;HPM_P1;HPM_P2
2023/11/30 00:00:09;;;;;;;10.98;4.85;;;-3273.30;99.10;;;;;;5008885;28;20037;-74
2023/11/30 00:02:35;;;;;;;10.27;4.00;;;-3273.30;99.00;;;;;;5006433;28;20740;-74
2023/11/30 00:05:02;;;;;;;9.75;3.72;;;-3273.40;99.10;;;;;;5009792;28;20105;-74
2023/11/30 00:07:28;;;;;;;10.30;4.28;;;-3273.50;99.10;;;;;;5009857;28;20458;-74
2023/11/30 00:09:53;;;;;;;9.60;4.05;;;-3273.50;99.20;;;;;;5011236;28;20096;-74
2023/11/30 00:12:18;;;;;;;6.97;3.35;;;-3273.60;99.10;;;;;;5009473;28;20497;-74
2023/11/30 00:14:44;;;;;;;10.18;4.13;;;-3273.60;99.10;;;;;;5010482;28;20082;-74
2023/11/30 00:17:10;;;;;;;8.48;3.95;;;-3273.70;99.10;;;;;;5002894;28;20037;-74
2023/11/30 00:19:35;;;;;;;9.35;4.10;;;-3273.70;99.20;;;;;;5010530;28;20041;-74
2023/11/30 00:22:01;;;;;;;8.23;3.78;;;-3273.80;99.20;;;;;;5010987;28;20040;-74
2023/11/30 00:24:27;;;;;;;10.00;3.85;;;-3273.80;99.20;;;;;;5011104;28;20053;-74
2023/11/30 00:26:52;;;;;;;8.63;3.30;;;-3273.80;99.20;;;;;;5008978;28;20041;-74
2023/11/30 00:29:18;;;;;;;10.43;3.88;;;-3273.90;99.30;;;;;;5009276;28;20034;-74
2023/11/30 00:31:43;;;;;;;9.95;4.22;;;-3274.00;99.30;;;;;;5006897;28;20045;-73
2023/11/30 00:34:09;;;;;;;11.27;4.10;;;-3273.90;99.30;;;;;;5009029;28;20038;-74
2023/11/30 00:36:34;;;;;;;9.73;3.53;;;-3274.00;99.30;;;;;;5007862;28;20475;-74
2023/11/30 00:39:00;;;;;;;8.73;4.20;;;-3274.00;99.20;;;;;;5010895;28;20030;-74
2023/11/30 00:41:25;;;;;;;11.10;4.95;;;-3274.00;99.20;;;;;;5010183;28;20152;-73
2023/11/30 00:43:51;;;;;;;10.15;4.47;;;-3274.00;99.20;;;;;;5008056;28;20100;-74
2023/11/30 00:46:17;;;;;;;11.75;4.32;;;-3274.10;99.30;;;;;;5023439;28;20046;-74
2023/11/30 00:48:42;;;;;;;10.57;4.10;;;-3274.10;99.20;;;;;;5007826;28;20371;-73
2023/11/30 00:51:09;;;;;;;9.55;4.13;;;-3274.10;99.20;;;;;;5007749;28;20062;-74
2023/11/30 00:53:35;;;;;;;9.75;4.05;;;-3274.10;99.20;;;;;;5011432;28;20402;-74
2023/11/30 00:56:00;;;;;;;9.25;4.28;;;-3274.20;99.30;;;;;;5006437;28;20034;-74
2023/11/30 00:58:26;;;;;;;9.98;3.78;;;-3274.20;99.30;;;;;;5010577;28;20501;-74
2023/11/30 01:00:51;;;;;;;12.15;5.47;;;-3274.20;99.20;;;;;;5008717;28;20038;-74
2023/11/30 01:03:17;;;;;;;13.70;5.40;;;-3274.30;99.20;;;;;;5008400;28;20532;-74
2023/11/30 01:05:42;;;;;;;11.55;4.93;;;-3274.20;99.20;;;;;;5006868;28;20032;-74
2023/11/30 01:08:08;;;;;;;11.05;5.10;;;-3274.30;99.20;;;;;;5011431;28;20382;-73
2023/11/30 01:10:33;;;;;;;13.10;5.38;;;-3274.30;99.20;;;;;;5014573;28;20033;-74
2023/11/30 01:12:59;;;;;;;12.05;5.13;;;-3274.30;99.20;;;;;;5014246;28;20041;-74
2023/11/30 01:15:24;;;;;;;12.15;4.43;;;-3274.30;99.20;;;;;;5012682;28;20077;-74
2023/11/30 01:17:49;;;;;;;10.35;3.63;;;-3274.30;99.20;;;;;;5010583;28;20143;-74
2023/11/30 01:20:16;;;;;;;9.05;4.35;;;-3274.30;99.20;;;;;;5013662;28;20027;-73
2023/11/30 01:22:41;;;;;;;11.05;4.55;;;-3274.30;99.20;;;;;;5014733;28;20021;-73
2023/11/30 01:25:07;;;;;;;14.52;5.57;;;-3274.30;99.20;;;;;;5011039;28;20546;-74
2023/11/30 01:27:33;;;;;;;11.20;5.03;;;-3274.30;99.20;;;;;;5014340;28;20100;-73
2023/11/30 01:29:58;;;;;;;9.35;4.28;;;-3274.30;99.20;;;;;;5015263;28;20481;-74
2023/11/30 01:32:24;;;;;;;12.13;5.00;;;-3274.30;99.20;;;;;;5010536;28;20486;-73
2023/11/30 01:34:49;;;;;;;10.88;4.75;;;-3274.40;99.20;;;;;;5013461;28;20136;-74
2023/11/30 01:37:15;;;;;;;13.00;5.45;;;-3274.30;99.10;;;;;;5012682;28;20038;-73
2023/11/30 01:39:40;;;;;;;10.20;4.28;;;-3274.30;99.10;;;;;;5013239;28;20072;-74
2023/11/30 01:42:06;;;;;;;8.65;4.05;;;-3274.40;99.10;;;;;;5012619;28;20103;-74
2023/11/30 01:44:31;;;;;;;12.50;4.88;;;-3274.40;99.10;;;;;;5010048;28;20107;-73
2023/11/30 01:46:57;;;;;;;10.40;4.25;;;-3274.30;99.10;;;;;;5011030;28;20036;-74
2023/11/30 01:49:22;;;;;;;8.68;4.40;;;-3274.40;99.10;;;;;;5012359;28;20029;-73
2023/11/30 01:51:49;;;;;;;9.95;4.07;;;-3274.30;99.10;;;;;;5013677;28;20021;-73
2023/11/30 01:54:15;;;;;;;8.75;3.95;;;-3274.30;99.10;;;;;;5011807;28;20386;-73
2023/11/30 01:56:41;;;;;;;12.27;4.68;;;-3274.30;99.00;;;;;;5012128;28;20030;-74
2023/11/30 01:59:08;;;;;;;11.43;4.57;;;-3274.30;99.00;;;;;;5010599;28;20100;-74
2023/11/30 02:01:35;;;;;;;9.30;3.83;;;-3274.30;99.00;;;;;;5013315;28;20079;-74
2023/11/30 02:04:13;;;;;;;12.35;3.95;;;-3274.30;99.00;;;;;;5015385;28;20044;-73
2023/11/30 02:06:39;;;;;;;9.32;4.18;;;-3274.30;99.00;;;;;;5013335;28;20053;-74
2023/11/30 02:09:04;;;;;;;11.43;4.70;;;-3274.20;98.90;;;;;;5011603;28;20030;-74
2023/11/30 02:11:31;;;;;;;9.90;4.07;;;-3274.30;99.00;;;;;;5012201;28;20038;-74
2023/11/30 02:13:56;;;;;;;11.00;4.45;;;-3274.20;98.90;;;;;;5011222;28;20534;-74
2023/11/30 02:16:22;;;;;;;10.98;5.00;;;-3274.20;98.90;;;;;;5011497;28;20053;-74
2023/11/30 02:18:47;;;;;;;9.60;4.20;;;-3274.10;98.90;;;;;;5008550;28;20026;-74
2023/11/30 02:21:13;;;;;;;10.98;5.28;;;-3274.10;98.80;;;;;;5008861;28;20088;-74
2023/11/30 02:23:38;;;;;;;12.75;5.38;;;-3274.00;98.90;;;;;;5012715;28;20041;-74
2023/11/30 02:26:04;;;;;;;10.48;4.97;;;-3274.00;98.90;;;;;;5007881;28;20022;-74
2023/11/30 02:28:29;;;;;;;9.43;5.22;;;-3273.90;98.80;;;;;;5019127;28;20045;-74
2023/11/30 02:30:55;;;;;;;11.68;5.45;;;-3273.90;98.80;;;;;;5010904;28;20041;-74
2023/11/30 02:33:20;;;;;;;11.88;5.95;;;-3273.90;98.80;;;;;;5008744;28;20037;-74
2023/11/30 02:35:46;;;;;;;14.20;6.10;;;-3273.80;98.80;;;;;;5013131;28;20159;-74
2023/11/30 02:38:11;;;;;;;12.80;6.35;;;-3273.80;98.90;;;;;;5013116;28;20034;-74
2023/11/30 02:40:37;;;;;;;13.93;6.65;;;-3273.90;99.00;;;;;;5011989;28;20038;-74
2023/11/30 02:43:02;;;;;;;12.50;5.63;;;-3273.90;99.00;;;;;;5011755;28;20401;-74
2023/11/30 02:45:28;;;;;;;12.48;5.13;;;-3273.90;99.00;;;;;;5012361;28;20034;-74
2023/11/30 02:47:53;;;;;;;15.20;6.03;;;-3273.90;99.00;;;;;;5009114;28;20080;-74
2023/11/30 02:50:19;;;;;;;14.05;5.72;;;-3273.90;99.00;;;;;;5009462;28;20054;-74
2023/11/30 02:52:44;;;;;;;14.48;5.68;;;-3273.90;98.90;;;;;;5014052;28;20128;-74
2023/11/30 02:55:10;;;;;;;10.63;5.07;;;-3273.90;99.00;;;;;;5012009;28;20040;-74
2023/11/30 02:57:36;;;;;;;13.93;5.97;;;-3273.80;99.00;;;;;;5010533;28;20041;-74
2023/11/30 03:00:02;;;;;;;15.88;5.65;;;-3273.80;98.90;;;;;;5012314;28;20026;-74
2023/11/30 03:02:27;;;;;;;14.45;6.05;;;-3273.90;99.00;;;;;;5008710;28;20033;-73
2023/11/30 03:04:53;;;;;;;11.02;4.75;;;-3273.90;99.00;;;;;;5010105;28;20046;-74
2023/11/30 03:07:18;;;;;;;12.75;5.38;;;-3274.00;99.10;;;;;;5009772;28;20501;-74
2023/11/30 03:09:43;;;;;;;13.50;5.15;;;-3274.00;99.10;;;;;;5014596;28;20043;-74
2023/11/30 03:12:09;;;;;;;10.35;4.65;;;-3274.00;99.00;;;;;;5011793;28;20033;-73
2023/11/30 03:14:34;;;;;;;11.52;4.60;;;-3274.10;99.00;;;;;;5011498;28;20030;-73
2023/11/30 03:17:00;;;;;;;9.15;4.45;;;-3274.20;98.90;;;;;;5006077;28;20037;-74
2023/11/30 03:19:25;;;;;;;9.55;4.45;;;-3274.20;98.90;;;;;;5010060;28;20475;-74
2023/11/30 03:21:52;;;;;;;11.93;4.68;;;-3274.20;98.80;;;;;;5007887;28;20351;-74
2023/11/30 03:24:20;;;;;;;9.15;4.55;;;-3274.20;98.80;;;;;;5012226;28;20033;-74
2023/11/30 03:26:46;;;;;;;8.50;3.88;;;-3274.20;98.80;;;;;;5007957;28;20037;-74
2023/11/30 03:29:11;;;;;;;10.82;4.07;;;-3274.30;98.70;;;;;;5011257;28;20033;-74
2023/11/30 03:31:37;;;;;;;9.30;3.80;;;-3274.30;98.70;;;;;;5009298;28;20040;-74
2023/11/30 03:34:03;;;;;;;9.23;3.80;;;-3274.40;98.70;;;;;;5007679;28;20041;-74
2023/11/30 03:36:28;;;;;;;10.23;4.25;;;-3274.40;98.70;;;;;;5011126;28;20037;-73
2023/11/30 03:38:55;;;;;;;10.40;4.07;;;-3274.40;98.60;;;;;;5012142;28;20471;-74
2023/11/30 03:41:24;;;;;;;12.02;4.93;;;-3274.40;98.60;;;;;;5009942;28;20022;-73
2023/11/30 03:43:50;;;;;;;10.23;4.18;;;-3274.40;98.50;;;;;;5014800;28;20038;-74
2023/11/30 03:46:15;;;;;;;9.55;4.70;;;-3274.50;98.60;;;;;;5012429;28;20434;-74
2023/11/30 03:48:41;;;;;;;8.25;3.40;;;-3274.50;98.60;;;;;;5008979;28;20025;-74
2023/11/30 03:51:06;;;;;;;10.05;4.53;;;-3274.50;98.50;;;;;;5008787;28;20100;-74
2023/11/30 03:53:32;;;;;;;8.18;3.38;;;-3274.60;98.50;;;;;;5012309;28;20450;-74
2023/11/30 03:56:00;;;;;;;11.25;4.30;;;-3274.60;98.60;;;;;;5010451;28;20030;-73
2023/11/30 03:58:26;;;;;;;10.20;3.70;;;-3274.60;98.70;;;;;;5009598;28;20491;-74
2023/11/30 04:00:51;;;;;;;9.75;4.13;;;-3274.60;98.70;;;;;;5005328;28;20038;-74
2023/11/30 04:03:17;;;;;;;9.50;3.83;;;-3274.70;98.60;;;;;;5009860;28;20350;-74
2023/11/30 04:05:42;;;;;;;8.15;3.90;;;-3274.60;98.60;;;;;;5009032;28;20029;-74
2023/11/30 04:08:08;;;;;;;8.70;3.75;;;-3274.60;98.60;;;;;;5011245;28;20095;-74
2023/11/30 04:10:33;;;;;;;8.55;3.30;;;-3274.60;98.60;;;;;;5010851;28;20030;-74
2023/11/30 04:12:59;;;;;;;7.43;3.33;;;-3274.50;98.50;;;;;;5011039;28;20555;-74
2023/11/30 04:15:24;;;;;;;10.48;3.95;;;-3274.40;98.60;;;;;;5009345;28;20083;-73
2023/11/30 04:17:50;;;;;;;9.95;3.90;;;-3274.40;98.60;;;;;;5005499;28;20034;-74
2023/11/30 04:20:15;;;;;;;8.85;3.45;;;-3274.30;98.60;;;;;;5009875;28;20124;-74
2023/11/30 04:22:41;;;;;;;10.77;3.97;;;-3274.20;98.60;;;;;;5009726;28;20083;-74
2023/11/30 04:25:07;;;;;;;7.30;3.47;;;-3274.20;98.70;;;;;;5010631;28;20398;-74
2023/11/30 04:27:32;;;;;;;7.28;3.00;;;-3274.20;98.60;;;;;;5012180;28;20031;-74
2023/11/30 04:29:58;;;;;;;8.57;3.38;;;-3274.20;98.70;;;;;;5010061;28;20038;-73
2023/11/30 04:32:23;;;;;;;8.80;3.40;;;-3274.20;98.70;;;;;;5007714;28;20105;-73
2023/11/30 04:34:49;;;;;;;7.85;3.47;;;-3274.10;98.70;;;;;;5008456;28;20042;-74
2023/11/30 04:37:14;;;;;;;10.85;4.05;;;-3274.10;98.70;;;;;;5011280;28;20402;-74
2023/11/30 04:39:40;;;;;;;10.70;4.28;;;-3274.10;98.90;;;;;;5010305;28;20030;-74
2023/11/30 04:42:05;;;;;;;9.60;4.13;;;-3274.10;98.90;;;;;;5007695;28;20026;-74
2023/11/30 04:44:31;;;;;;;11.18;4.57;;;-3274.20;99.00;;;;;;5009841;28;20101;-74
2023/11/30 04:46:56;;;;;;;9.93;3.55;;;-3274.30;99.10;;;;;;5006179;28;20164;-74
2023/11/30 04:49:22;;;;;;;8.98;3.97;;;-3274.30;99.10;;;;;;5006683;28;20100;-74
2023/11/30 04:51:47;;;;;;;12.85;4.93;;;-3274.40;99.20;;;;;;5009099;28;20065;-74
2023/11/30 04:54:13;;;;;;;12.00;4.60;;;-3274.50;99.20;;;;;;5012825;28;20030;-74
2023/11/30 04:56:38;;;;;;;10.48;4.22;;;-3274.50;99.30;;;;;;5007347;28;20042;-74
2023/11/30 04:59:04;;;;;;;15.23;5.68;;;-3274.50;99.30;;;;;;5010106;28;20109;-73
2023/11/30 05:01:30;;;;;;;10.75;5.05;;;-3274.60;99.30;;;;;;5005094;28;20030;-74
2023/11/30 05:03:58;;;;;;;10.52;4.32;;;-3274.60;99.30;;;;;;5010558;28;20040;-74
2023/11/30 05:06:24;;;;;;;11.63;4.22;;;-3274.60;99.30;;;;;;5013840;28;20502;-74
2023/11/30 05:08:49;;;;;;;9.70;4.68;;;-3274.60;99.40;;;;;;5011598;28;20033;-73
2023/11/30 05:11:16;;;;;;;9.48;3.97;;;-3274.60;99.40;;;;;;5010103;28;20030;-74
2023/11/30 05:13:41;;;;;;;10.40;4.70;;;-3274.60;99.50;;;;;;5008432;28;20040;-74
2023/11/30 05:16:07;;;;;;;12.30;4.97;;;-3274.60;99.50;;;;;;5006619;28;20141;-73
2023/11/30 05:18:33;;;;;;;13.50;5.10;;;-3274.70;99.60;;;;;;5004471;28;20117;-74
2023/11/30 05:20:59;;;;;;;10.70;4.55;;;-3274.70;99.60;;;;;;5003280;28;20457;-74
2023/11/30 05:23:25;;;;;;;11.57;5.15;;;-3274.70;99.70;;;;;;5009301;28;20462;-74
2023/11/30 05:25:50;;;;;;;9.07;4.47;;;-3274.70;99.60;;;;;;5011453;28;20084;-75
2023/11/30 05:28:16;;;;;;;9.15;3.65;;;-3274.70;99.60;;;;;;5009405;28;20113;-72
2023/11/30 05:30:42;;;;;;;10.32;4.68;;;-3274.70;99.60;;;;;;4971313;28;20479;-73
2023/11/30 05:33:07;;;;;;;9.63;4.13;;;-3274.70;99.70;;;;;;5005898;28;20042;-73
2023/11/30 05:35:34;;;;;;;8.55;3.90;;;-3274.60;99.70;;;;;;5003556;28;20030;-75
2023/11/30 05:38:00;;;;;;;10.82;4.95;;;-3274.60;99.70;;;;;;5009247;28;20034;-74
2023/11/30 05:40:26;;;;;;;12.57;4.70;;;-3274.70;99.80;;;;;;5010372;28;20463;-74
2023/11/30 05:42:52;;;;;;;12.63;4.40;;;-3274.70;99.80;;;;;;5012265;28;20017;-76
2023/11/30 05:45:17;;;;;;;12.80;4.45;;;-3274.70;99.80;;;;;;5007632;28;20034;-78
2023/11/30 05:47:43;;;;;;;7.78;3.75;;;-3274.70;99.90;;;;;;5004253;28;20033;-72
2023/11/30 05:50:09;;;;;;;11.00;4.07;;;-3274.70;99.80;;;;;;4998059;28;20109;-72
2023/11/30 05:52:35;;;;;;;10.15;4.47;;;-3274.80;99.90;;;;;;5018667;28;20426;-72
2023/11/30 05:55:01;;;;;;;10.73;4.82;;;-3274.80;99.90;;;;;;5018757;28;20029;-71
2023/11/30 05:57:26;;;;;;;11.75;4.32;;;-3274.80;99.90;;;;;;5010483;28;20414;-71
2023/11/30 05:59:52;;;;;;;8.25;4.07;;;-3274.80;99.90;;;;;;5013046;28;20033;-71
2023/11/30 06:02:18;;;;;;;9.98;4.05;;;-3274.90;99.90;;;;;;5011537;28;20096;-71
2023/11/30 06:04:53;;;;;;;9.15;4.43;;;-3274.90;99.90;;;;;;5008033;28;20042;-72
2023/11/30 06:07:20;;;;;;;9.20;3.60;;;-3274.90;99.90;;;;;;5013404;28;20063;-71
2023/11/30 06:09:45;;;;;;;11.75;4.40;;;-3274.90;99.90;;;;;;5007202;28;20088;-71
2023/11/30 06:12:11;;;;;;;10.07;4.75;;;-3275.00;99.90;;;;;;5011593;28;20038;-72
2023/11/30 06:14:36;;;;;;;10.32;4.10;;;-3275.00;99.90;;;;;;5011514;28;20231;-72
2023/11/30 06:17:02;;;;;;;10.10;3.95;;;-3275.00;99.90;;;;;;5003273;28;20061;-73
2023/11/30 06:19:28;;;;;;;10.00;3.92;;;-3275.00;99.80;;;;;;5011162;28;20112;-73
2023/11/30 06:21:53;;;;;;;7.57;3.58;;;-3275.00;99.90;;;;;;5012406;28;20030;-72
2023/11/30 06:24:19;;;;;;;8.40;3.55;;;-3275.00;99.90;;;;;;5011945;28;20029;-72
2023/11/30 06:26:44;;;;;;;9.95;4.28;;;-3275.00;99.80;;;;;;5010952;28;20046;-73
2023/11/30 06:29:11;;;;;;;10.18;4.40;;;-3275.00;99.80;;;;;;5014472;28;20026;-73
2023/11/30 06:31:37;;;;;;;10.13;4.60;;;-3275.00;99.80;;;;;;5007819;28;20029;-73
2023/11/30 06:34:03;;;;;;;10.02;4.57;;;-3275.00;99.80;;;;;;5009259;28;20061;-73
2023/11/30 06:36:28;;;;;;;11.60;5.30;;;-3275.00;99.70;;;;;;5012283;28;20042;-73
2023/11/30 06:38:54;;;;;;;9.65;4.03;;;-3275.00;99.60;;;;;;5011397;28;20121;-73
2023/11/30 06:41:19;;;;;;;9.25;4.10;;;-3275.00;99.60;;;;;;5009312;28;20069;-73
2023/11/30 06:43:45;;;;;;;9.32;4.00;;;-3275.00;99.60;;;;;;5001490;28;20532;-73
2023/11/30 06:46:19;;;;;;;8.85;4.18;;;-3275.00;99.60;;;;;;5009818;28;20034;-73
2023/11/30 06:48:46;;;;;;;9.65;4.45;;;-3275.00;99.50;;;;;;5006199;28;20036;-77
2023/11/30 06:51:12;;;;;;;8.52;4.22;;;-3275.00;99.50;;;;;;5011919;28;20046;-76
2023/11/30 06:53:37;;;;;;;9.35;4.18;;;-3275.00;99.30;;;;;;5006035;28;20045;-75
2023/11/30 06:56:03;;;;;;;9.52;4.35;;;-3275.00;99.30;;;;;;5010195;28;20065;-73
2023/11/30 06:58:29;;;;;;;7.97;3.85;;;-3275.00;99.30;;;;;;5008635;28;20026;-74
2023/11/30 07:00:54;;;;;;;8.57;4.22;;;-3275.10;99.30;;;;;;5009707;28;20045;-73
2023/11/30 07:03:20;;;;;;;10.07;4.25;;;-3275.10;99.20;;;;;;5007454;28;20398;-73
2023/11/30 07:05:45;;;;;;;10.93;4.72;;;-3275.10;99.30;;;;;;5010956;28;20022;-73
2023/11/30 07:08:11;;;;;;;11.13;5.00;;;-3275.10;99.30;;;;;;5014251;28;20486;-73
2023/11/30 07:10:36;;;;;;;9.85;4.25;;;-3275.10;99.30;;;;;;5011044;28;20514;-73
2023/11/30 07:13:02;;;;;;;11.82;4.30;;;-3275.10;99.30;;;;;;5012077;28;20038;-73
2023/11/30 07:15:27;;;;;;;11.48;5.13;;;-3275.10;99.20;;;;;;5012258;28;20152;-73
2023/11/30 07:17:53;;;;;;;10.88;4.82;;;-3275.10;99.30;;;;;;5012277;28;20033;-73
2023/11/30 07:20:18;;;;;;;8.05;4.18;;;-3275.10;99.30;;;;;;5010084;28;20455;-74
2023/11/30 07:22:44;;;;;;;7.30;3.80;;;-3275.20;99.30;;;;;;5012924;28;20038;-74
2023/11/30 07:25:09;;;;;;;8.65;3.97;;;-3275.10;99.30;;;;;;5013823;28;20029;-74
2023/11/30 07:27:35;;;;;;;8.65;4.53;;;-3275.10;99.30;;;;;;5011126;28;20442;-73
2023/11/30 07:30:00;;;;;;;9.13;4.10;;;-3275.10;99.30;;;;;;5011163;28;20042;-73
2023/11/30 07:32:26;;;;;;;8.75;4.95;;;-3275.10;99.30;;;;;;5007092;28;20397;-73
2023/11/30 07:34:51;;;;;;;11.00;4.72;;;-3275.20;99.40;;;;;;5006914;28;20049;-73
2023/11/30 07:37:17;;;;;;;8.45;3.78;;;-3275.20;99.40;;;;;;5009998;28;20069;-73
2023/11/30 07:39:43;;;;;;;10.85;4.00;;;-3275.30;99.30;;;;;;5009367;28;20521;-73
2023/11/30 07:42:09;;;;;;;10.38;4.82;;;-3275.30;99.30;;;;;;5012176;28;20068;-74
2023/11/30 07:44:35;;;;;;;9.23;4.50;;;-3275.30;99.40;;;;;;5010580;28;20033;-73
2023/11/30 07:47:01;;;;;;;10.60;4.68;;;-3275.30;99.40;;;;;;5010694;28;20092;-73
2023/11/30 07:49:26;;;;;;;10.27;4.72;;;-3275.40;99.30;;;;;;5010692;28;20155;-73
2023/11/30 07:51:52;;;;;;;9.90;4.20;;;-3275.30;99.20;;;;;;5006877;28;20101;-73
2023/11/30 07:54:17;;;;;;;11.57;5.50;;;-3275.40;99.30;;;;;;5006334;28;20124;-73
2023/11/30 07:56:43;;;;;;;13.02;5.13;;;-3275.30;99.20;;;;;;5004508;28;20029;-74
2023/11/30 07:59:12;;;;;;;12.05;4.88;;;-3275.40;99.20;;;;;;5006867;28;20046;-74
2023/11/30 08:01:38;;;;;;;10.30;4.00;;;-3275.50;99.20;;;;;;5007548;28;20040;-73
2023/11/30 08:04:03;;;;;;;9.60;4.38;;;-3275.40;99.20;;;;;;5010967;28;20046;-74
2023/11/30 08:06:29;;;;;;;10.32;4.88;;;-3275.40;99.20;;;;;;5010698;28;20422;-74
2023/11/30 08:08:54;;;;;;;11.48;5.18;;;-3275.50;99.20;;;;;;5012783;28;20029;-73
2023/11/30 08:11:20;;;;;;;10.40;5.80;;;-3275.50;99.00;;;;;;5010767;28;20443;-74
2023/11/30 08:13:45;;;;;;;11.45;5.47;;;-3275.50;99.10;;;;;;5009257;28;20092;-73
2023/11/30 08:16:11;;;;;;;12.30;6.03;;;-3275.50;99.00;;;;;;5009992;28;20049;-74
2023/11/30 08:18:36;;;;;;;10.98;4.35;;;-3275.60;99.00;;;;;;5009142;28;20108;-74
2023/11/30 08:21:02;;;;;;;10.57;4.93;;;-3275.70;99.00;;;;;;5009448;28;20034;-74
2023/11/30 08:23:28;;;;;;;10.10;5.10;;;-3275.70;98.90;;;;;;5011958;28;20449;-74
2023/11/30 08:25:53;;;;;;;7.10;3.67;;;-3275.70;98.80;;;;;;5016449;28;20034;-74
2023/11/30 08:28:23;;;;;;;12.07;4.70;;;-3275.60;98.70;;;;;;5009567;28;20470;-74
2023/11/30 08:30:48;;;;;;;10.23;4.78;;;-3275.70;98.80;;;;;;5007773;28;20463;-74
2023/11/30 08:33:14;;;;;;;10.98;4.82;;;-3275.70;98.70;;;;;;5010580;28;20041;-74
2023/11/30 08:35:39;;;;;;;11.45;4.97;;;-3275.70;98.70;;;;;;5008810;28;20765;-74
2023/11/30 08:38:05;;;;;;;9.20;4.32;;;-3275.70;98.60;;;;;;5011421;28;20030;-73
2023/11/30 08:40:30;;;;;;;9.32;4.88;;;-3275.80;98.50;;;;;;5010307;28;20155;-74
2023/11/30 08:42:56;;;;;;;9.75;3.90;;;-3275.80;98.60;;;;;;5008094;28;20074;-74
2023/11/30 08:45:21;;;;;;;11.85;5.55;;;-3275.80;98.50;;;;;;5011091;28;20113;-74
2023/11/30 08:47:47;;;;;;;10.32;5.07;;;-3275.70;98.40;;;;;;5006858;28;20128;-74
2023/11/30 08:50:14;;;;;;;8.18;4.30;;;-3275.70;98.40;;;;;;5009172;28;20053;-74
2023/11/30 08:52:39;;;;;;;8.90;4.57;;;-3275.70;98.40;;;;;;5012897;28;20188;-74
2023/11/30 08:55:05;;;;;;;10.85;5.38;;;-3275.70;98.50;;;;;;5010371;28;20157;-73
2023/11/30 08:57:31;;;;;;;9.45;4.20;;;-3275.70;98.50;;;;;;5006509;28;20027;-74
2023/11/30 08:59:56;;;;;;;10.68;4.95;;;-3275.70;98.40;;;;;;5012507;28;20525;-74
2023/11/30 09:02:24;;;;;;;11.27;6.18;;;-3275.70;98.50;;;;;;5006620;28;20084;-74
2023/11/30 09:04:50;;;;;;;12.20;4.85;;;-3275.80;98.70;;;;;;5010387;28;20390;-74
2023/11/30 09:07:15;;;;;;;12.20;5.95;;;-3275.80;98.60;;;;;;5006503;28;20097;-74
2023/11/30 09:09:41;;;;;;;12.38;5.55;;;-3275.80;98.60;;;;;;5009541;28;20470;-74
2023/11/30 09:12:07;;;;;;;11.57;5.45;;;-3275.80;98.50;;;;;;5010140;28;20030;-74
2023/11/30 09:14:32;;;;;;;11.43;4.72;;;-3276.00;98.50;;;;;;5010428;28;20081;-74
2023/11/30 09:16:59;;;;;;;12.32;5.53;;;-3276.00;98.30;;;;;;5022760;28;20029;-74
2023/11/30 09:19:25;;;;;;;10.93;4.45;;;-3276.00;98.30;;;;;;5009796;28;20037;-74
2023/11/30 09:21:50;;;;;;;11.00;4.60;;;-3276.10;98.10;;;;;;5008826;28;20029;-73
2023/11/30 09:24:20;;;;;;;8.30;4.00;;;-3276.00;98.00;;;;;;5009443;28;20092;-74
2023/11/30 09:26:45;;;;;;;10.60;3.95;;;-3276.10;98.10;;;;;;5010657;28;20398;-74
2023/11/30 09:29:11;;;;;;;8.98;4.13;;;-3276.10;97.80;;;;;;5012520;28;20138;-74
2023/11/30 09:31:41;;;;;;;8.32;3.50;;;-3276.10;98.00;;;;;;5016286;28;20042;-74
2023/11/30 09:34:06;;;;;;;10.37;3.97;;;-3276.10;98.00;;;;;;5010633;28;20034;-74
2023/11/30 09:36:32;;;;;;;8.98;4.53;;;-3276.00;98.10;;;;;;5011809;28;20380;-74
2023/11/30 09:38:57;;;;;;;9.60;3.92;;;-3276.10;98.30;;;;;;5013207;28;20041;-74
2023/11/30 09:41:23;;;;;;;11.07;5.32;;;-3276.10;98.30;;;;;;5015491;28;20087;-74
2023/11/30 09:43:49;;;;;;;12.02;4.47;;;-3276.00;98.20;;;;;;5011007;28;20076;-74
2023/11/30 09:46:14;;;;;;;7.82;3.95;;;-3276.00;98.10;;;;;;5013269;28;20076;-74
2023/11/30 09:48:40;;;;;;;10.52;4.75;;;-3276.10;98.20;;;;;;5011718;28;20509;-74
2023/11/30 09:51:07;;;;;;;9.93;4.38;;;-3276.10;98.20;;;;;;5011540;28;20046;-74
2023/11/30 09:53:32;;;;;;;8.70;4.05;;;-3276.20;98.20;;;;;;5014319;28;20422;-74
2023/11/30 09:55:58;;;;;;;8.00;3.67;;;-3276.20;98.00;;;;;;5010585;28;20033;-74
2023/11/30 09:58:24;;;;;;;8.38;4.03;;;-3276.20;98.00;;;;;;5010518;28;20049;-74
2023/11/30 10:00:49;;;;;;;6.60;2.70;;;-3276.30;98.00;;;;;;5013230;28;20026;-74
2023/11/30 10:03:15;;;;;;;7.85;3.78;;;-3276.40;98.10;;;;;;5010456;28;20141;-74
2023/11/30 10:05:41;;;;;;;8.05;3.85;;;-3276.30;97.70;;;;;;5010158;28;20025;-74
2023/11/30 10:08:07;;;;;;;12.23;5.28;;;-3276.40;97.90;;;;;;5012829;28;20049;-74
2023/11/30 10:10:33;;;;;;;8.57;4.20;;;-3276.40;97.90;;;;;;5012865;28;20022;-74
2023/11/30 10:12:59;;;;;;;8.38;3.95;;;-3276.30;97.50;;;;;;5013171;28;20041;-74
2023/11/30 10:15:25;;;;;;;8.07;3.50;;;-3276.40;97.60;;;;;;5010362;28;20030;-74
2023/11/30 10:17:51;;;;;;;7.35;3.58;;;-3276.30;97.30;;;;;;5010139;28;20022;-74
2023/11/30 10:20:17;;;;;;;8.70;4.40;;;-3276.40;97.30;;;;;;5009761;28;20107;-74
2023/11/30 10:22:43;;;;;;;7.63;3.90;;;-3276.50;97.30;;;;;;5012196;28;20031;-74
2023/11/30 10:25:09;;;;;;;9.85;4.32;;;-3276.50;97.10;;;;;;5012067;28;20505;-74
2023/11/30 10:27:35;;;;;;;8.82;4.78;;;-3276.60;97.10;;;;;;5014196;28;20121;-74
2023/11/30 10:30:03;;;;;;;8.57;4.25;;;-3276.50;96.70;;;;;;5012401;28;20029;-74
2023/11/30 10:32:31;;;;;;;8.55;3.90;;;-3276.60;96.90;;;;;;5009270;28;20021;-74
2023/11/30 10:34:58;;;;;;;7.45;3.88;;;-3276.60;96.70;;;;;;5011078;28;20042;-74
2023/11/30 10:37:26;;;;;;;5.30;2.97;;;-3276.60;96.50;;;;;;5012922;28;20109;-74
2023/11/30 10:39:59;;;;;;;9.77;3.88;;;-3276.50;96.30;;;;;;5012285;28;20583;-74
2023/11/30 10:42:25;;;;;;;7.20;3.42;;;-3276.40;95.90;;;;;;5011524;28;20061;-74
2023/11/30 10:44:52;;;;;;;10.07;4.35;;;-3276.60;96.20;;;;;;5011600;28;20065;-74
2023/11/30 10:47:19;;;;;;;7.63;3.35;;;-3276.50;95.90;;;;;;5009225;28;20687;-73
2023/11/30 10:49:46;;;;;;;6.63;3.05;;;-3276.50;95.90;;;;;;5012299;28;20034;-74
2023/11/30 10:52:13;;;;;;;7.53;3.55;;;-3276.50;96.00;;;;;;5013234;28;20092;-74
2023/11/30 10:55:01;;;;;;;5.97;3.05;;;-3276.60;96.00;;;;;;5010647;28;20386;-74
2023/11/30 10:57:26;;;;;;;8.68;3.15;;;-3276.60;95.90;;;;;;5009426;28;20026;-74
2023/11/30 11:00:05;;;;;;;6.47;3.08;;;0.00;96.10;;;;;;5012470;28;20105;-74
2023/11/30 11:02:38;;;;;;;7.28;3.55;;;0.00;95.90;;;;;;5007005;28;20022;-73
2023/11/30 11:05:18;;;;;;;7.10;3.63;;;0.00;95.80;;;;;;5009749;28;20478;-74
2023/11/30 11:07:48;;;;;;;6.60;2.85;;;0.00;95.50;;;;;;5012981;28;20041;-74
2023/11/30 11:10:27;;;;;;;8.48;3.50;;;-3276.70;94.70;;;;;;5011410;28;20044;-74
2023/11/30 11:12:57;;;;;;;6.63;3.05;;;-3276.70;94.60;;;;;;5005779;28;20030;-74
2023/11/30 11:15:23;;;;;;;6.23;3.23;;;0.00;95.20;;;;;;5011664;28;20486;-75
2023/11/30 11:17:54;;;;;;;6.53;3.55;;;0.00;95.50;;;;;;5007061;28;20030;-74
2023/11/30 11:20:26;;;;;;;6.32;2.85;;;-3276.70;94.70;;;;;;5010453;28;20394;-75
2023/11/30 11:23:03;;;;;;;5.68;2.65;;;0.00;94.70;;;;;;5012007;28;20037;-75
2023/11/30 11:25:34;;;;;;;5.60;2.38;;;0.00;95.30;;;;;;5011964;28;20029;-74
2023/11/30 11:27:59;;;;;;;5.70;2.63;;;0.10;95.00;;;;;;5011668;28;20100;-74
2023/11/30 11:30:26;;;;;;;5.38;3.00;;;0.10;95.00;;;;;;5011692;28;20121;-75
2023/11/30 11:33:00;;;;;;;4.72;2.60;;;0.00;94.40;;;;;;5008652;28;21167;-75
2023/11/30 11:35:26;;;;;;;6.53;2.63;;;0.10;94.80;;;;;;5009201;28;20072;-75
2023/11/30 11:37:56;;;;;;;6.43;3.22;;;0.00;94.00;;;;;;5010101;28;20030;-75
2023/11/30 11:40:21;;;;;;;6.93;3.17;;;0.00;94.30;;;;;;5012452;28;20037;-75
2023/11/30 11:42:47;;;;;;;5.78;3.00;;;-3276.70;94.10;;;;;;5011430;28;20033;-75
2023/11/30 11:45:14;;;;;;;5.60;2.65;;;0.00;95.00;;;;;;5011073;28;20104;-75
2023/11/30 11:47:39;;;;;;;7.38;2.78;;;0.10;95.10;;;;;;5008368;28;20030;-75
2023/11/30 11:50:06;;;;;;;6.75;3.35;;;0.00;94.80;;;;;;5007872;28;20521;-73
2023/11/30 11:52:32;;;;;;;5.30;2.88;;;0.00;94.70;;;;;;5007044;28;20037;-73
2023/11/30 11:55:03;;;;;;;6.07;2.70;;;0.10;94.90;;;;;;5012738;28;20038;-73
2023/11/30 11:57:39;;;;;;;7.03;2.60;;;0.10;94.70;;;;;;5011354;28;20022;-73
2023/11/30 12:00:08;;;;;;;4.88;2.45;;;0.20;94.50;;;;;;5005746;28;20033;-75
2023/11/30 12:02:34;;;;;;;6.25;3.22;;;0.00;93.90;;;;;;5013017;28;20028;-75
2023/11/30 12:05:11;;;;;;;7.63;2.88;;;0.10;94.00;;;;;;5011998;28;20022;-76
2023/11/30 12:07:57;;;;;;;5.97;2.92;;;0.10;94.40;;;;;;5011666;28;20041;-76
2023/11/30 12:10:30;;;;;;;6.78;2.40;;;0.00;93.60;;;;;;5009405;28;20038;-76